Time;durP1;ratioP1;P1;durP2;ratioP2;P2;SDS_P1;SDS_P2;PMS_P1;PMS_P2;Temp;Humidity;BMP_temperature;BMP_pressure;BME280_temperature;BME280_humidity;BME280_pressure;Samples;Min_cycle;Max_cycle;Signal;HPM_P1;HPM_P2
2024/01/22 00:00:21;;;;;;;4.35;1.52;;;;;;;;;;4946263;28;100088;-75
2024/01/22 00:02:48;;;;;;;5.35;1.60;;;;;;;;;;4927710;28;99454;-75
2024/01/22 00:05:14;;;;;;;6.25;1.73;;;;;;;;;;4945479;28;99153;-75
2024/01/22 00:07:41;;;;;;;4.53;1.67;;;;;;;;;;4948162;28;99354;-75
2024/01/22 00:10:08;;;;;;;5.03;1.55;;;;;;;;;;4930287;28;101057;-76
2024/01/22 00:12:35;;;;;;;;;;;;;;;;;;4948850;28;99263;-75
2024/01/22 00:15:01;;;;;;;4.28;1.83;;;;;;;;;;4951039;28;103922;-76
2024/01/22 00:17:28;;;;;;;6.00;1.60;;;;;;;;;;4948686;28;100483;-76
2024/01/22 00:19:54;;;;;;;5.20;1.55;;;;;;;;;;4934290;28;99086;-76
2024/01/22 00:22:21;;;;;;;4.45;1.60;;;;;;;;;;4949027;28;99619;-75
2024/01/22 00:24:47;;;;;;;5.20;1.70;;;;;;;;;;4948471;28;98653;-75
2024/01/22 00:27:14;;;;;;;4.70;1.55;;;;;;;;;;4948185;28;100388;-75
2024/01/22 00:29:41;;;;;;;3.90;1.77;;;;;;;;;;4948980;28;99277;-75
2024/01/22 00:32:07;;;;;;;6.03;1.88;;;;;;;;;;4949110;28;98904;-75
2024/01/22 00:34:34;;;;;;;4.35;1.60;;;;;;;;;;4947345;28;99554;-75
2024/01/22 00:37:00;;;;;;;4.25;1.60;;;;;;;;;;4930576;28;105359;-76
2024/01/22 00:39:27;;;;;;;4.20;1.70;;;;;;;;;;4947942;28;98551;-76
2024/01/22 00:41:53;;;;;;;4.97;1.65;;;;;;;;;;4951643;28;98990;-76
2024/01/22 00:44:20;;;;;;;6.35;1.48;;;;;;;;;;4947962;28;98978;-75
2024/01/22 00:46:46;;;;;;;4.05;1.52;;;;;;;;;;4963466;28;100471;-75
2024/01/22 00:49:13;;;;;;;3.75;1.40;;;;;;;;;;4968000;28;99354;-75
2024/01/22 00:51:40;;;;;;;4.20;1.70;;;;;;;;;;4968865;28;98570;-75
2024/01/22 00:54:06;;;;;;;3.95;1.48;;;;;;;;;;4968435;28;98844;-75
2024/01/22 00:56:35;;;;;;;4.25;1.65;;;;;;;;;;4966957;28;99422;-75
2024/01/22 00:59:02;;;;;;;4.03;1.70;;;;;;;;;;4966458;28;99698;-75
2024/01/22 01:01:31;;;;;;;4.43;1.55;;;;;;;;;;4951392;28;99027;-75
2024/01/22 01:03:57;;;;;;;12.73;1.75;;;;;;;;;;4948770;28;98662;-75
2024/01/22 01:06:24;;;;;;;7.13;1.70;;;;;;;;;;4947765;28;99368;-75
2024/01/22 01:08:50;;;;;;;6.03;1.70;;;;;;;;;;4947871;28;106261;-75
2024/01/22 01:11:17;;;;;;;7.03;1.60;;;;;;;;;;4948448;28;99007;-75
2024/01/22 01:13:43;;;;;;;5.13;1.83;;;;;;;;;;4948056;28;99689;-75
2024/01/22 01:16:10;;;;;;;4.55;1.65;;;;;;;;;;4948254;28;99589;-75
2024/01/22 01:18:37;;;;;;;4.03;1.52;;;;;;;;;;4947335;28;99053;-75
2024/01/22 01:21:03;;;;;;;4.25;1.40;;;;;;;;;;4948100;28;99944;-76
2024/01/22 01:23:30;;;;;;;4.72;1.80;;;;;;;;;;4951109;28;100365;-75
2024/01/22 01:25:56;;;;;;;6.80;1.70;;;;;;;;;;4948081;28;99450;-76
2024/01/22 01:28:23;;;;;;;5.05;1.42;;;;;;;;;;4947702;28;99423;-75
2024/01/22 01:30:49;;;;;;;7.22;1.75;;;;;;;;;;4947641;28;99086;-74
2024/01/22 01:33:16;;;;;;;5.53;1.40;;;;;;;;;;4948504;28;98998;-75
2024/01/22 01:35:44;;;;;;;4.63;1.50;;;;;;;;;;4947234;28;100110;-75
2024/01/22 01:38:11;;;;;;;4.45;1.60;;;;;;;;;;4948116;28;98781;-74
2024/01/22 01:40:42;;;;;;;4.70;1.52;;;;;;;;;;4947629;28;98790;-74
2024/01/22 01:43:08;;;;;;;8.50;1.70;;;;;;;;;;4946850;28;100508;-74
2024/01/22 01:45:35;;;;;;;3.95;1.50;;;;;;;;;;4950886;28;99296;-75
2024/01/22 01:48:02;;;;;;;3.67;1.25;;;;;;;;;;4946866;28;100600;-74
2024/01/22 01:50:28;;;;;;;5.20;1.50;;;;;;;;;;4946703;28;98582;-74
2024/01/22 01:52:55;;;;;;;3.65;1.30;;;;;;;;;;4946285;28;101712;-73
2024/01/22 01:55:22;;;;;;;2.53;1.30;;;;;;;;;;4946563;28;99279;-74
2024/01/22 01:57:49;;;;;;;5.00;1.40;;;;;;;;;;4947758;28;98816;-74
2024/01/22 02:00:23;;;;;;;3.28;1.42;;;;;;;;;;4947801;28;99180;-74
2024/01/22 02:02:49;;;;;;;4.18;1.42;;;;;;;;;;4946035;28;100147;-74
2024/01/22 02:05:16;;;;;;;3.88;1.50;;;;;;;;;;4947808;28;97798;-73
2024/01/22 02:07:43;;;;;;;3.55;1.42;;;;;;;;;;4950372;28;99321;-75
2024/01/22 02:10:13;;;;;;;3.58;1.40;;;;;;;;;;4954447;28;99050;-74
2024/01/22 02:12:40;;;;;;;3.88;1.40;;;;;;;;;;4965769;28;99640;-74
2024/01/22 02:15:06;;;;;;;4.00;1.30;;;;;;;;;;4948164;28;100270;-74
2024/01/22 02:17:33;;;;;;;4.63;1.60;;;;;;;;;;4947374;28;99032;-74
2024/01/22 02:20:00;;;;;;;3.22;1.20;;;;;;;;;;4946693;28;99784;-74
2024/01/22 02:22:26;;;;;;;4.40;1.40;;;;;;;;;;4945462;28;100758;-74
2024/01/22 02:24:53;;;;;;;3.60;1.30;;;;;;;;;;4946632;28;98893;-74
2024/01/22 02:27:20;;;;;;;3.75;1.40;;;;;;;;;;4947422;28;98904;-74
2024/01/22 02:29:46;;;;;;;3.95;1.25;;;;;;;;;;4949781;28;99518;-74
2024/01/22 02:32:13;;;;;;;2.83;1.30;;;;;;;;;;4947221;28;98836;-74
2024/01/22 02:34:40;;;;;;;2.33;1.20;;;;;;;;;;4932052;28;100455;-75
2024/01/22 02:37:06;;;;;;;3.25;1.30;;;;;;;;;;4967074;28;99877;-75
2024/01/22 02:39:33;;;;;;;2.67;1.20;;;;;;;;;;4948723;28;100088;-74
2024/01/22 02:41:59;;;;;;;3.88;1.40;;;;;;;;;;4947061;28;99787;-74
2024/01/22 02:44:26;;;;;;;3.13;1.23;;;;;;;;;;4947249;28;98812;-74
2024/01/22 02:46:52;;;;;;;5.00;1.35;;;;;;;;;;4947636;28;99871;-75
2024/01/22 02:49:19;;;;;;;3.55;1.25;;;;;;;;;;4929575;28;99864;-75
2024/01/22 02:51:45;;;;;;;3.67;1.20;;;;;;;;;;4953012;28;99439;-74
2024/01/22 02:54:12;;;;;;;3.00;1.05;;;;;;;;;;4967264;28;98358;-74
2024/01/22 02:56:39;;;;;;;2.60;1.30;;;;;;;;;;4965940;28;99074;-75
2024/01/22 02:59:06;;;;;;;3.88;1.20;;;;;;;;;;4956153;28;99045;-75
2024/01/22 03:01:33;;;;;;;1.67;1.00;;;;;;;;;;4946323;28;100758;-74
2024/01/22 03:04:00;;;;;;;1.50;1.08;;;;;;;;;;4947396;28;98969;-74
2024/01/22 03:06:26;;;;;;;3.60;1.17;;;;;;;;;;4945961;28;100854;-73
2024/01/22 03:08:53;;;;;;;2.70;1.17;;;;;;;;;;4962157;28;99475;-74
2024/01/22 03:11:20;;;;;;;2.75;1.10;;;;;;;;;;4948644;28;99064;-74
2024/01/22 03:13:46;;;;;;;2.78;1.10;;;;;;;;;;4944318;28;99245;-74
2024/01/22 03:16:13;;;;;;;3.15;1.20;;;;;;;;;;4945045;28;98782;-74
2024/01/22 03:18:39;;;;;;;2.83;1.08;;;;;;;;;;4945975;28;100044;-75
2024/01/22 03:21:06;;;;;;;1.73;1.00;;;;;;;;;;4945948;28;99320;-74
2024/01/22 03:23:32;;;;;;;1.98;1.10;;;;;;;;;;4944923;28;99034;-74
2024/01/22 03:25:59;;;;;;;2.58;1.15;;;;;;;;;;4945188;28;99906;-75
2024/01/22 03:28:26;;;;;;;2.85;1.10;;;;;;;;;;4944303;28;99787;-73
2024/01/22 03:30:52;;;;;;;2.00;0.90;;;;;;;;;;4943554;28;99030;-74
2024/01/22 03:33:19;;;;;;;3.60;1.00;;;;;;;;;;4947694;28;99123;-74
2024/01/22 03:35:46;;;;;;;4.63;1.10;;;;;;;;;;4961422;28;99265;-74
2024/01/22 03:38:13;;;;;;;2.33;0.90;;;;;;;;;;4942205;28;99418;-74
2024/01/22 03:40:40;;;;;;;3.78;1.10;;;;;;;;;;4943092;28;99752;-74
2024/01/22 03:43:06;;;;;;;2.72;1.10;;;;;;;;;;4944026;28;98609;-74
2024/01/22 03:45:33;;;;;;;2.67;1.02;;;;;;;;;;4944325;28;98779;-74
2024/01/22 03:47:59;;;;;;;3.10;1.00;;;;;;;;;;4943809;28;100171;-74
2024/01/22 03:50:26;;;;;;;3.25;1.10;;;;;;;;;;4925306;28;101060;-73
2024/01/22 03:52:53;;;;;;;1.52;1.00;;;;;;;;;;4944619;28;99771;-74
2024/01/22 03:55:19;;;;;;;1.98;1.00;;;;;;;;;;4949380;28;99332;-75
2024/01/22 03:57:45;;;;;;;2.67;0.95;;;;;;;;;;4947674;28;99025;-74
2024/01/22 04:00:12;;;;;;;2.22;0.90;;;;;;;;;;4946931;28;99640;-74
2024/01/22 04:02:39;;;;;;;2.20;1.20;;;;;;;;;;4954902;28;99830;-74
2024/01/22 04:05:06;;;;;;;1.77;0.90;;;;;;;;;;4944595;28;101108;-74
2024/01/22 04:07:33;;;;;;;2.17;1.13;;;;;;;;;;4944812;28;98311;-74
2024/01/22 04:09:59;;;;;;;3.40;1.10;;;;;;;;;;4944355;28;98588;-74
2024/01/22 04:12:26;;;;;;;2.33;0.90;;;;;;;;;;4943854;28;98967;-73
2024/01/22 04:14:52;;;;;;;2.45;1.00;;;;;;;;;;4943333;28;99999;-75
2024/01/22 04:17:19;;;;;;;2.25;0.82;;;;;;;;;;4953225;28;98985;-74
2024/01/22 04:19:45;;;;;;;2.70;0.77;;;;;;;;;;4943246;28;100282;-74
2024/01/22 04:22:12;;;;;;;1.67;0.80;;;;;;;;;;4944225;28;98990;-74
2024/01/22 04:24:39;;;;;;;1.65;0.85;;;;;;;;;;4943192;28;98863;-74
2024/01/22 04:27:06;;;;;;;2.90;0.90;;;;;;;;;;4944081;28;99240;-74
2024/01/22 04:29:34;;;;;;;2.53;1.02;;;;;;;;;;4943757;28;99341;-74
2024/01/22 04:32:01;;;;;;;2.25;0.70;;;;;;;;;;4944840;28;99347;-74
2024/01/22 04:34:28;;;;;;;2.38;0.80;;;;;;;;;;4943627;28;99840;-74
2024/01/22 04:36:54;;;;;;;2.53;1.00;;;;;;;;;;4926121;28;99199;-75
2024/01/22 04:39:21;;;;;;;0.88;0.80;;;;;;;;;;4957854;28;99645;-74
2024/01/22 04:41:47;;;;;;;1.65;0.80;;;;;;;;;;4943887;28;98730;-74
2024/01/22 04:44:14;;;;;;;1.13;0.80;;;;;;;;;;4925719;28;99885;-74
2024/01/22 04:46:40;;;;;;;1.40;0.88;;;;;;;;;;4942468;28;99267;-74
2024/01/22 04:49:08;;;;;;;0.68;0.65;;;;;;;;;;4944465;28;98769;-74
2024/01/22 04:51:35;;;;;;;1.10;0.57;;;;;;;;;;4944736;28;99938;-73
2024/01/22 04:54:02;;;;;;;1.00;0.70;;;;;;;;;;4946165;28;99341;-73
2024/01/22 04:56:28;;;;;;;2.35;0.80;;;;;;;;;;4946876;28;98464;-73
2024/01/22 04:58:55;;;;;;;1.67;0.80;;;;;;;;;;4953720;28;99214;-73
2024/01/22 05:01:21;;;;;;;3.30;0.73;;;;;;;;;;4969078;28;99338;-73
2024/01/22 05:03:48;;;;;;;2.42;0.82;;;;;;;;;;4947711;28;99406;-75
2024/01/22 05:06:15;;;;;;;1.27;0.80;;;;;;;;;;4945833;28;100482;-75
2024/01/22 05:08:42;;;;;;;2.03;0.70;;;;;;;;;;4945649;28;98949;-75
2024/01/22 05:11:09;;;;;;;2.05;0.80;;;;;;;;;;4947288;28;99183;-75
2024/01/22 05:13:35;;;;;;;2.03;0.73;;;;;;;;;;4946095;28;99201;-75
2024/01/22 05:16:02;;;;;;;1.55;0.80;;;;;;;;;;4947123;28;98941;-75
2024/01/22 05:18:28;;;;;;;1.40;0.80;;;;;;;;;;4945917;28;98891;-74
2024/01/22 05:20:55;;;;;;;1.60;0.90;;;;;;;;;;4949893;28;98734;-74
2024/01/22 05:23:21;;;;;;;1.23;0.68;;;;;;;;;;4946486;28;99454;-74
2024/01/22 05:25:48;;;;;;;2.45;0.73;;;;;;;;;;4946377;28;99759;-75
2024/01/22 05:28:14;;;;;;;4.35;0.80;;;;;;;;;;4945455;28;99541;-74
2024/01/22 05:30:41;;;;;;;2.45;0.80;;;;;;;;;;4946092;28;100904;-74
2024/01/22 05:33:07;;;;;;;1.50;0.70;;;;;;;;;;4946638;28;100588;-74
2024/01/22 05:35:34;;;;;;;2.55;0.65;;;;;;;;;;4947939;28;98909;-73
2024/01/22 05:38:01;;;;;;;0.52;0.52;;;;;;;;;;4947661;28;98980;-74
2024/01/22 05:40:27;;;;;;;3.33;0.80;;;;;;;;;;4957698;28;99720;-74
2024/01/22 05:42:53;;;;;;;1.30;0.70;;;;;;;;;;4970545;28;98963;-74
2024/01/22 05:45:20;;;;;;;1.20;0.63;;;;;;;;;;4967837;28;98500;-75
2024/01/22 05:47:47;;;;;;;1.02;0.60;;;;;;;;;;4956876;28;98866;-75
2024/01/22 05:50:14;;;;;;;1.65;0.80;;;;;;;;;;4947318;28;99866;-75
2024/01/22 05:52:40;;;;;;;1.88;0.70;;;;;;;;;;4945826;28;101460;-75
2024/01/22 05:55:07;;;;;;;0.95;0.57;;;;;;;;;;4948047;28;99208;-75
2024/01/22 05:57:33;;;;;;;4.57;0.80;;;;;;;;;;4947827;28;98922;-76
2024/01/22 06:00:09;;;;;;;5.22;0.90;;;;;;;;;;4947521;28;99666;-75
2024/01/22 06:02:37;;;;;;;2.10;0.70;;;;;;;;;;4947106;28;98532;-75
2024/01/22 06:05:04;;;;;;;5.10;0.88;;;;;;;;;;4949618;28;99980;-75
2024/01/22 06:07:31;;;;;;;2.38;0.70;;;;;;;;;;4946640;28;99036;-75
2024/01/22 06:09:58;;;;;;;3.90;0.80;;;;;;;;;;4947973;28;98967;-75
2024/01/22 06:12:37;;;;;;;2.05;0.70;;;;;;;;;;4946681;28;99411;-75
2024/01/22 06:15:03;;;;;;;2.38;0.80;;;;;;;;;;4947847;28;99000;-75
2024/01/22 06:17:33;;;;;;;2.75;0.80;;;;;;;;;;4945232;28;99696;-75
2024/01/22 06:20:00;;;;;;;2.55;0.65;;;;;;;;;;4945394;28;100179;-76
2024/01/22 06:22:27;;;;;;;2.45;0.80;;;;;;;;;;4945148;28;99092;-75
2024/01/22 06:24:54;;;;;;;3.63;0.90;;;;;;;;;;4964421;28;100285;-76
2024/01/22 06:27:21;;;;;;;3.20;0.80;;;;;;;;;;4949347;28;101048;-75
2024/01/22 06:29:48;;;;;;;2.55;0.70;;;;;;;;;;4964549;28;100061;-75
2024/01/22 06:32:15;;;;;;;2.13;0.90;;;;;;;;;;4946705;28;100290;-75
2024/01/22 06:34:42;;;;;;;5.32;0.88;;;;;;;;;;4947205;28;98019;-76
2024/01/22 06:37:08;;;;;;;2.97;0.85;;;;;;;;;;4947174;28;98528;-75
2024/01/22 06:39:35;;;;;;;1.52;0.60;;;;;;;;;;4946896;28;99331;-75
2024/01/22 06:42:02;;;;;;;5.38;0.90;;;;;;;;;;4946415;28;99905;-75
2024/01/22 06:44:29;;;;;;;;;;;;;;;;;;4946667;28;99999;-75
2024/01/22 06:46:55;;;;;;;3.38;0.80;;;;;;;;;;4946727;28;101188;-75
2024/01/22 06:49:22;;;;;;;2.65;1.00;;;;;;;;;;4932728;28;98891;-75
2024/01/22 06:51:49;;;;;;;3.40;0.90;;;;;;;;;;4945153;28;99342;-75
2024/01/22 06:54:16;;;;;;;2.40;0.80;;;;;;;;;;4947223;28;98815;-75
2024/01/22 06:56:45;;;;;;;3.13;0.80;;;;;;;;;;4945636;28;99392;-75
2024/01/22 06:59:12;;;;;;;2.67;1.00;;;;;;;;;;4946928;28;98699;-75
2024/01/22 07:01:38;;;;;;;2.75;0.90;;;;;;;;;;4947150;28;98954;-75
2024/01/22 07:04:05;;;;;;;3.05;0.93;;;;;;;;;;4946738;28;105279;-75
2024/01/22 07:06:32;;;;;;;3.63;0.80;;;;;;;;;;4950408;28;101085;-74
2024/01/22 07:08:59;;;;;;;4.78;0.90;;;;;;;;;;4945389;28;99042;-75
2024/01/22 07:11:25;;;;;;;3.42;0.90;;;;;;;;;;4947496;28;99865;-76
2024/01/22 07:13:52;;;;;;;4.60;0.90;;;;;;;;;;4946979;28;98980;-75
2024/01/22 07:16:18;;;;;;;3.05;0.82;;;;;;;;;;4945975;28;99078;-73
2024/01/22 07:18:45;;;;;;;3.97;0.95;;;;;;;;;;4945165;28;99284;-74
2024/01/22 07:21:12;;;;;;;3.50;0.80;;;;;;;;;;4946778;28;98846;-74
2024/01/22 07:23:39;;;;;;;5.00;0.95;;;;;;;;;;4946979;28;100561;-74
2024/01/22 07:26:06;;;;;;;7.72;0.98;;;;;;;;;;4946370;28;105849;-73
2024/01/22 07:28:32;;;;;;;3.75;1.00;;;;;;;;;;4946060;28;99263;-73
2024/01/22 07:30:59;;;;;;;3.40;0.90;;;;;;;;;;4948428;28;99416;-71
2024/01/22 07:33:25;;;;;;;9.02;0.90;;;;;;;;;;4945303;28;99529;-71
2024/01/22 07:35:52;;;;;;;4.65;1.13;;;;;;;;;;4945969;28;99673;-71
2024/01/22 07:38:19;;;;;;;3.65;0.88;;;;;;;;;;4944924;28;100799;-71
2024/01/22 07:40:46;;;;;;;3.63;0.93;;;;;;;;;;4948500;28;98946;-71
2024/01/22 07:43:12;;;;;;;3.95;1.00;;;;;;;;;;4943696;28;99941;-71
2024/01/22 07:45:39;;;;;;;4.40;1.05;;;;;;;;;;4943840;28;99822;-71
2024/01/22 07:48:06;;;;;;;3.70;1.05;;;;;;;;;;4955250;28;98576;-71
2024/01/22 07:50:32;;;;;;;4.53;1.00;;;;;;;;;;4962330;28;99553;-71
2024/01/22 07:52:59;;;;;;;4.40;0.95;;;;;;;;;;4946852;28;100227;-71
2024/01/22 07:55:25;;;;;;;5.82;1.20;;;;;;;;;;4945076;28;100106;-71
2024/01/22 07:57:52;;;;;;;4.50;1.20;;;;;;;;;;4945664;28;98778;-71
2024/01/22 08:00:19;;;;;;;7.22;1.50;;;;;;;;;;4946024;28;99260;-69
2024/01/22 08:02:45;;;;;;;7.13;1.20;;;;;;;;;;4944289;28;98803;-69
2024/01/22 08:05:13;;;;;;;3.22;0.90;;;;;;;;;;4946055;28;99800;-70
2024/01/22 08:07:42;;;;;;;6.10;1.40;;;;;;;;;;4952050;28;98852;-70
2024/01/22 08:10:09;;;;;;;;;;;;;;;;;;4965618;28;99351;-69
2024/01/22 08:12:35;;;;;;;4.00;1.08;;;;;;;;;;4964969;28;122805;-70
2024/01/22 08:15:02;;;;;;;4.10;1.00;;;;;;;;;;4967147;28;98495;-70
2024/01/22 08:17:29;;;;;;;5.50;1.20;;;;;;;;;;4945669;28;99750;-69
2024/01/22 08:19:55;;;;;;;7.18;1.20;;;;;;;;;;4945362;28;99706;-69
2024/01/22 08:22:22;;;;;;;6.25;1.23;;;;;;;;;;4945477;28;100456;-69
2024/01/22 08:24:48;;;;;;;5.32;1.23;;;;;;;;;;4942452;28;100176;-69
2024/01/22 08:27:15;;;;;;;7.43;1.38;;;;;;;;;;4943839;28;99149;-70
2024/01/22 08:29:41;;;;;;;4.40;1.08;;;;;;;;;;4946967;28;98838;-69
2024/01/22 08:32:08;;;;;;;5.28;1.20;;;;;;;;;;4947199;28;100421;-69
2024/01/22 08:34:38;;;;;;;4.88;1.25;;;;;;;;;;4945834;28;99113;-70
2024/01/22 08:37:05;;;;;;;5.88;1.13;;;;;;;;;;4932760;28;100121;-70
2024/01/22 08:39:35;;;;;;;8.77;1.40;;;;;;;;;;4963236;28;99192;-71
2024/01/22 08:42:02;;;;;;;6.35;1.20;;;;;;;;;;4967461;28;100077;-72
2024/01/22 08:44:29;;;;;;;6.40;1.27;;;;;;;;;;4952323;28;102803;-71
2024/01/22 08:46:55;;;;;;;7.18;1.45;;;;;;;;;;4946253;28;99031;-71
2024/01/22 08:49:22;;;;;;;5.13;1.17;;;;;;;;;;4948286;28;100273;-71
2024/01/22 08:51:48;;;;;;;4.95;1.27;;;;;;;;;;4947455;28;99177;-71
2024/01/22 08:54:15;;;;;;;4.75;1.30;;;;;;;;;;4948177;28;98896;-71
2024/01/22 08:56:41;;;;;;;6.45;1.40;;;;;;;;;;4946799;28;101158;-71
2024/01/22 08:59:08;;;;;;;6.18;1.40;;;;;;;;;;4950242;28;99669;-71
2024/01/22 09:01:35;;;;;;;4.32;1.23;;;;;;;;;;4947319;28;98828;-71
2024/01/22 09:04:02;;;;;;;6.65;1.10;;;;;;;;;;4947726;28;99043;-71
2024/01/22 09:06:29;;;;;;;5.78;1.13;;;;;;;;;;4946967;28;98702;-71
2024/01/22 09:08:55;;;;;;;4.30;1.30;;;;;;;;;;4963265;28;100933;-71
2024/01/22 09:11:22;;;;;;;7.10;1.50;;;;;;;;;;4966894;28;100887;-71
2024/01/22 09:13:49;;;;;;;5.78;1.30;;;;;;;;;;4967519;28;98748;-71
2024/01/22 09:16:15;;;;;;;5.57;1.40;;;;;;;;;;4967343;28;98843;-71
2024/01/22 09:18:42;;;;;;;6.45;1.52;;;;;;;;;;4966618;28;99279;-71
2024/01/22 09:21:09;;;;;;;5.20;1.08;;;;;;;;;;4969461;28;98680;-70
2024/01/22 09:23:36;;;;;;;5.45;1.38;;;;;;;;;;4966451;28;99703;-70
2024/01/22 09:26:03;;;;;;;7.47;1.55;;;;;;;;;;4959660;28;97904;-70
2024/01/22 09:28:30;;;;;;;8.25;1.20;;;;;;;;;;4946444;28;98552;-70
2024/01/22 09:31:00;;;;;;;6.72;1.30;;;;;;;;;;4946883;28;99500;-71
2024/01/22 09:33:27;;;;;;;5.07;1.10;;;;;;;;;;4944001;28;99552;-71
2024/01/22 09:35:54;;;;;;;7.47;1.40;;;;;;;;;;4944606;28;100824;-71
2024/01/22 09:38:21;;;;;;;5.78;1.33;;;;;;;;;;4950244;28;99127;-71
2024/01/22 09:40:49;;;;;;;5.95;1.42;;;;;;;;;;4954766;28;98980;-71
2024/01/22 09:43:16;;;;;;;5.25;1.10;;;;;;;;;;4941669;28;99124;-72
2024/01/22 09:45:43;;;;;;;8.18;1.40;;;;;;;;;;4926185;28;98827;-71
2024/01/22 09:48:09;;;;;;;7.72;1.70;;;;;;;;;;4926712;28;99236;-71
2024/01/22 09:50:36;;;;;;;5.70;1.38;;;;;;;;;;4927226;28;99847;-71
2024/01/22 09:53:09;;;;;;;5.43;1.23;;;;;;;;;;4927061;28;98997;-71
2024/01/22 09:55:38;;;;;;;6.00;1.50;;;;;;;;;;4927317;28;100876;-71
2024/01/22 09:58:07;;;;;;;6.43;1.60;;;;;;;;;;4925996;28;100370;-71
2024/01/22 10:00:34;;;;;;;10.05;1.70;;;;;;;;;;4926123;28;99280;-71
2024/01/22 10:03:03;;;;;;;6.75;1.33;;;;;;;;;;4930405;28;99536;-71
2024/01/22 10:05:30;;;;;;;5.78;1.40;;;;;;;;;;4945774;28;98788;-71
2024/01/22 10:07:57;;;;;;;5.97;1.50;;;;;;;;;;4946459;28;99267;-71
2024/01/22 10:10:23;;;;;;;4.15;1.13;;;;;;;;;;4946113;28;100864;-71
2024/01/22 10:12:58;;;;;;;8.23;1.48;;;;;;;;;;4945267;28;98856;-71
2024/01/22 10:15:26;;;;;;;6.53;1.50;;;;;;;;;;4947136;28;99040;-71
2024/01/22 10:17:58;;;;;;;8.07;1.45;;;;;;;;;;4946053;28;100600;-71
2024/01/22 10:20:24;;;;;;;4.97;1.42;;;;;;;;;;4947198;28;99142;-71
2024/01/22 10:22:59;;;;;;;7.60;1.40;;;;;;;;;;4946027;28;99821;-71
2024/01/22 10:25:25;;;;;;;20.90;1.63;;;;;;;;;;4949329;28;100063;-71
2024/01/22 10:28:06;;;;;;;4.22;1.27;;;;;;;;;;4946953;28;100131;-71
2024/01/22 10:30:33;;;;;;;6.70;1.50;;;;;;;;;;4945752;28;100104;-71
2024/01/22 10:33:10;;;;;;;6.93;1.40;;;;;;;;;;4946535;28;98523;-71
2024/01/22 10:35:36;;;;;;;7.47;1.65;;;;;;;;;;4947058;28;99929;-72
2024/01/22 10:38:06;;;;;;;6.15;1.30;;;;;;;;;;4946414;28;99178;-71
2024/01/22 10:40:33;;;;;;;5.38;1.30;;;;;;;;;;4946756;28;98008;-71
2024/01/22 10:43:16;;;;;;;7.60;1.40;;;;;;;;;;4946202;28;98632;-72
2024/01/22 10:45:44;;;;;;;4.50;1.38;;;;;;;;;;4946232;28;99250;-71
2024/01/22 10:48:12;;;;;;;8.60;1.40;;;;;;;;;;4949173;28;99593;-71
2024/01/22 10:50:52;;;;;;;8.23;1.42;;;;;;;;;;4945001;28;104582;-71
2024/01/22 10:53:19;;;;;;;5.78;1.30;;;;;;;;;;4946163;28;99077;-71
2024/01/22 10:56:01;;;;;;;7.80;1.35;;;;;;;;;;4946618;28;99919;-71
2024/01/22 10:58:39;;;;;;;6.82;1.40;;;;;;;;;;4945820;28;99582;-71
2024/01/22 11:01:09;;;;;;;5.88;1.35;;;;;;;;;;4946945;28;98837;-71
2024/01/22 11:03:39;;;;;;;7.53;1.30;;;;;;;;;;4946617;28;99779;-71
2024/01/22 11:06:07;;;;;;;4.13;1.10;;;;;;;;;;4927252;28;100261;-71
2024/01/22 11:08:34;;;;;;;6.53;1.20;;;;;;;;;;4939439;28;99161;-71
2024/01/22 11:11:02;;;;;;;5.47;1.27;;;;;;;;;;4949325;28;99975;-71
2024/01/22 11:13:29;;;;;;;7.05;1.58;;;;;;;;;;4945852;28;99838;-71
2024/01/22 11:15:56;;;;;;;5.10;1.13;;;;;;;;;;4946766;28;99691;-71
2024/01/22 11:18:23;;;;;;;5.55;1.17;;;;;;;;;;4950725;28;99338;-72
2024/01/22 11:21:16;;;;;;;6.90;1.40;;;;;;;;;;4965295;28;99054;-72
2024/01/22 11:23:43;;;;;;;5.82;1.23;;;;;;;;;;4965871;28;99877;-71
2024/01/22 11:26:10;;;;;;;4.85;1.23;;;;;;;;;;4947291;28;99231;-72
2024/01/22 11:28:37;;;;;;;4.53;1.20;;;;;;;;;;4942900;28;98652;-72
2024/01/22 11:31:24;;;;;;;6.43;1.30;;;;;;;;;;4948835;28;99318;-72
2024/01/22 11:33:51;;;;;;;5.60;1.10;;;;;;;;;;4945343;28;98848;-70
2024/01/22 11:36:22;;;;;;;5.18;1.17;;;;;;;;;;4943223;28;99156;-72
2024/01/22 11:38:50;;;;;;;6.70;1.25;;;;;;;;;;4944596;28;102789;-72
2024/01/22 11:41:27;;;;;;;5.60;1.27;;;;;;;;;;4963877;28;98927;-72
2024/01/22 11:43:54;;;;;;;6.72;1.30;;;;;;;;;;4964731;28;99363;-71
2024/01/22 11:46:21;;;;;;;6.30;1.08;;;;;;;;;;4959991;28;100214;-72
2024/01/22 11:48:51;;;;;;;4.97;1.17;;;;;;;;;;4926843;28;98661;-72
2024/01/22 11:51:23;;;;;;;6.05;1.23;;;;;;;;;;4943222;28;100610;-72
2024/01/22 11:53:53;;;;;;;5.72;1.40;;;;;;;;;;4948428;28;99475;-70
2024/01/22 11:56:21;;;;;;;8.75;1.70;;;;;;;;;;4945184;28;99963;-72
2024/01/22 11:59:01;;;;;;;6.80;1.40;;;;;;;;;;4944226;28;99211;-70
2024/01/22 12:01:28;;;;;;;6.05;1.33;;;;;;;;;;4958270;28;98739;-72
2024/01/22 12:03:55;;;;;;;5.78;1.25;;;;;;;;;;4967456;28;99265;-72
2024/01/22 12:06:26;;;;;;;6.18;1.50;;;;;;;;;;4968276;28;99123;-72
2024/01/22 12:08:58;;;;;;;7.75;1.40;;;;;;;;;;4968945;28;98786;-70
2024/01/22 12:11:34;;;;;;;6.32;1.30;;;;;;;;;;4968737;28;98917;-72
2024/01/22 12:14:01;;;;;;;4.97;1.33;;;;;;;;;;4968466;28;99812;-72
2024/01/22 12:16:27;;;;;;;6.53;1.52;;;;;;;;;;4952406;28;98862;-72
2024/01/22 12:18:54;;;;;;;6.25;1.52;;;;;;;;;;4948716;28;99702;-72
2024/01/22 12:21:22;;;;;;;7.57;1.33;;;;;;;;;;4948025;28;98316;-71
2024/01/22 12:23:48;;;;;;;4.90;1.35;;;;;;;;;;4931340;28;99020;-71
2024/01/22 12:26:22;;;;;;;5.47;1.48;;;;;;;;;;4947588;28;99249;-71
2024/01/22 12:28:53;;;;;;;5.78;1.15;;;;;;;;;;4946981;28;99657;-71
2024/01/22 12:31:20;;;;;;;5.57;1.40;;;;;;;;;;4947646;28;101657;-71
2024/01/22 12:33:46;;;;;;;6.25;1.40;;;;;;;;;;4948295;28;99164;-71
2024/01/22 12:36:14;;;;;;;4.68;1.30;;;;;;;;;;4947504;28;98903;-71
2024/01/22 12:38:47;;;;;;;4.72;1.23;;;;;;;;;;4950503;28;98785;-71
2024/01/22 12:41:14;;;;;;;6.65;1.40;;;;;;;;;;4948511;28;98817;-71
2024/01/22 12:43:41;;;;;;;5.35;1.23;;;;;;;;;;4948280;28;99939;-71
2024/01/22 12:46:10;;;;;;;6.72;1.52;;;;;;;;;;4947853;28;99564;-71
2024/01/22 12:48:37;;;;;;;6.15;1.40;;;;;;;;;;4947683;28;98997;-71
2024/01/22 12:51:06;;;;;;;4.18;1.10;;;;;;;;;;4948577;28;98946;-71
2024/01/22 12:53:33;;;;;;;5.68;1.20;;;;;;;;;;4946160;28;100635;-72
2024/01/22 12:56:01;;;;;;;7.55;1.52;;;;;;;;;;4946809;28;99701;-72
2024/01/22 12:58:28;;;;;;;6.45;1.48;;;;;;;;;;4946379;28;98914;-72
2024/01/22 13:00:55;;;;;;;6.00;1.60;;;;;;;;;;4950717;28;100340;-71
2024/01/22 13:03:22;;;;;;;6.70;1.60;;;;;;;;;;4948058;28;99076;-71
2024/01/22 13:05:49;;;;;;;6.30;1.33;;;;;;;;;;4947767;28;100209;-71
2024/01/22 13:08:17;;;;;;;6.43;1.45;;;;;;;;;;4957808;28;99616;-72
2024/01/22 13:10:44;;;;;;;5.28;1.30;;;;;;;;;;4962244;28;98818;-71
2024/01/22 13:13:11;;;;;;;6.13;1.30;;;;;;;;;;4947060;28;99070;-71
2024/01/22 13:15:38;;;;;;;6.00;1.30;;;;;;;;;;4946690;28;98520;-71
2024/01/22 13:18:24;;;;;;;6.63;1.50;;;;;;;;;;4946739;28;99675;-72
2024/01/22 13:20:51;;;;;;;7.80;1.42;;;;;;;;;;4947032;28;103816;-71
2024/01/22 13:23:18;;;;;;;6.75;1.60;;;;;;;;;;4950146;28;99041;-71
2024/01/22 13:25:46;;;;;;;7.47;1.50;;;;;;;;;;4946931;28;100407;-72
2024/01/22 13:28:13;;;;;;;7.32;1.52;;;;;;;;;;4948015;28;98921;-71
2024/01/22 13:30:40;;;;;;;6.00;1.30;;;;;;;;;;4945553;28;98851;-71
2024/01/22 13:33:08;;;;;;;6.80;1.60;;;;;;;;;;4946108;28;101344;-71
2024/01/22 13:35:35;;;;;;;6.15;1.50;;;;;;;;;;4946974;28;98258;-71
2024/01/22 13:38:01;;;;;;;7.20;1.50;;;;;;;;;;4944009;28;99399;-71
2024/01/22 13:40:28;;;;;;;5.47;1.40;;;;;;;;;;4946611;28;100823;-71
2024/01/22 13:42:55;;;;;;;5.28;1.15;;;;;;;;;;4948671;28;99374;-71
2024/01/22 13:45:21;;;;;;;8.18;1.65;;;;;;;;;;4946792;28;99064;-71
2024/01/22 13:47:48;;;;;;;6.32;1.60;;;;;;;;;;4947403;28;99093;-71
2024/01/22 13:50:15;;;;;;;5.80;1.48;;;;;;;;;;4947599;28;99502;-71
2024/01/22 13:52:42;;;;;;;6.43;1.40;;;;;;;;;;4946632;28;99162;-71
2024/01/22 13:55:08;;;;;;;8.13;1.60;;;;;;;;;;4945685;28;99104;-71
2024/01/22 13:57:35;;;;;;;7.30;1.52;;;;;;;;;;4947117;28;99824;-71
2024/01/22 14:00:03;;;;;;;7.30;1.60;;;;;;;;;;4948084;28;98442;-71
2024/01/22 14:02:30;;;;;;;5.47;1.42;;;;;;;;;;4945763;28;98809;-71
2024/01/22 14:04:56;;;;;;;5.88;1.23;;;;;;;;;;4950242;28;99234;-71
2024/01/22 14:07:23;;;;;;;6.90;1.50;;;;;;;;;;4952337;28;99821;-71
2024/01/22 14:09:49;;;;;;;5.47;1.40;;;;;;;;;;4966298;28;99663;-71
2024/01/22 14:12:17;;;;;;;7.47;1.50;;;;;;;;;;4946701;28;100539;-71
2024/01/22 14:14:44;;;;;;;5.82;1.40;;;;;;;;;;4949656;28;98878;-71
2024/01/22 14:17:12;;;;;;;7.28;1.63;;;;;;;;;;4947126;28;99132;-71
2024/01/22 14:19:39;;;;;;;7.05;1.65;;;;;;;;;;4947001;28;99803;-71
2024/01/22 14:22:08;;;;;;;8.68;1.70;;;;;;;;;;4946652;28;99377;-71
2024/01/22 14:24:34;;;;;;;9.18;1.92;;;;;;;;;;4946552;28;98666;-71
2024/01/22 14:27:01;;;;;;;8.88;1.65;;;;;;;;;;4949558;28;100207;-70
2024/01/22 14:29:31;;;;;;;7.32;1.60;;;;;;;;;;4929360;28;100123;-70
2024/01/22 14:31:57;;;;;;;7.95;1.70;;;;;;;;;;4946277;28;100076;-70
2024/01/22 14:34:24;;;;;;;7.80;1.67;;;;;;;;;;4946601;28;98529;-70
2024/01/22 14:36:51;;;;;;;6.25;1.50;;;;;;;;;;4945981;28;103878;-70
2024/01/22 14:39:20;;;;;;;8.07;2.03;;;;;;;;;;4948621;28;99115;-71
2024/01/22 14:41:47;;;;;;;7.75;1.70;;;;;;;;;;4945943;28;99503;-71